sensor_id;sensor_type;location;lat;lon;timestamp;P1;durP1;ratioP1;P2;durP2;ratioP2
33108;SDS011;19481;51.118;6.940;2022-09-21T00:01:50;4.15;;;2.03;;
33108;SDS011;19481;51.118;6.940;2022-09-21T00:06:51;4.20;;;2.17;;
33108;SDS011;19481;51.118;6.940;2022-09-21T00:11:53;3.30;;;2.22;;
33108;SDS011;19481;51.118;6.940;2022-09-21T00:16:56;4.55;;;2.20;;
33108;SDS011;19481;51.118;6.940;2022-09-21T00:21:58;4.90;;;2.40;;
33108;SDS011;19481;51.118;6.940;2022-09-21T00:27:00;2.35;;;2.15;;
33108;SDS011;19481;51.118;6.940;2022-09-21T00:32:02;4.15;;;2.30;;
33108;SDS011;19481;51.118;6.940;2022-09-21T00:37:04;2.67;;;2.00;;
33108;SDS011;19481;51.118;6.940;2022-09-21T00:42:08;6.47;;;2.47;;
33108;SDS011;19481;51.118;6.940;2022-09-21T00:47:12;6.28;;;1.95;;
33108;SDS011;19481;51.118;6.940;2022-09-21T00:52:15;3.72;;;2.17;;
33108;SDS011;19481;51.118;6.940;2022-09-21T00:57:19;2.75;;;1.95;;
33108;SDS011;19481;51.118;6.940;2022-09-21T01:02:24;8.13;;;2.30;;
33108;SDS011;19481;51.118;6.940;2022-09-21T01:07:26;2.65;;;2.05;;
33108;SDS011;19481;51.118;6.940;2022-09-21T01:12:43;4.97;;;2.60;;
33108;SDS011;19481;51.118;6.940;2022-09-21T01:17:55;2.67;;;2.10;;
33108;SDS011;19481;51.118;6.940;2022-09-21T01:23:06;3.97;;;2.60;;
33108;SDS011;19481;51.118;6.940;2022-09-21T01:28:20;4.43;;;2.33;;
33108;SDS011;19481;51.118;6.940;2022-09-21T01:33:31;6.80;;;2.88;;
33108;SDS011;19481;51.118;6.940;2022-09-21T01:38:37;4.07;;;2.33;;
33108;SDS011;19481;51.118;6.940;2022-09-21T01:43:44;3.42;;;2.20;;
33108;SDS011;19481;51.118;6.940;2022-09-21T01:48:53;4.13;;;2.70;;
33108;SDS011;19481;51.118;6.940;2022-09-21T01:54:01;2.42;;;1.90;;
33108;SDS011;19481;51.118;6.940;2022-09-21T02:04:12;3.13;;;1.90;;
33108;SDS011;19481;51.118;6.940;2022-09-21T02:09:14;4.05;;;2.30;;
33108;SDS011;19481;51.118;6.940;2022-09-21T02:14:19;10.45;;;1.90;;
33108;SDS011;19481;51.118;6.940;2022-09-21T02:19:25;5.45;;;2.30;;
33108;SDS011;19481;51.118;6.940;2022-09-21T02:24:36;6.60;;;2.50;;
33108;SDS011;19481;51.118;6.940;2022-09-21T02:29:44;2.33;;;1.90;;
33108;SDS011;19481;51.118;6.940;2022-09-21T02:34:51;3.95;;;2.10;;
33108;SDS011;19481;51.118;6.940;2022-09-21T02:40:00;4.60;;;2.08;;
33108;SDS011;19481;51.118;6.940;2022-09-21T02:45:06;2.78;;;1.75;;
33108;SDS011;19481;51.118;6.940;2022-09-21T02:50:13;2.75;;;1.80;;
33108;SDS011;19481;51.118;6.940;2022-09-21T02:55:20;2.45;;;2.25;;
33108;SDS011;19481;51.118;6.940;2022-09-21T03:00:22;3.92;;;2.30;;
33108;SDS011;19481;51.118;6.940;2022-09-21T03:05:25;5.90;;;1.80;;
33108;SDS011;19481;51.118;6.940;2022-09-21T03:10:28;2.00;;;1.80;;
33108;SDS011;19481;51.118;6.940;2022-09-21T03:15:30;2.13;;;1.90;;
33108;SDS011;19481;51.118;6.940;2022-09-21T03:20:33;3.42;;;1.92;;
33108;SDS011;19481;51.118;6.940;2022-09-21T03:25:34;2.28;;;1.95;;
33108;SDS011;19481;51.118;6.940;2022-09-21T03:30:37;2.80;;;1.90;;
33108;SDS011;19481;51.118;6.940;2022-09-21T03:35:40;4.63;;;2.05;;
33108;SDS011;19481;51.118;6.940;2022-09-21T03:40:43;2.10;;;1.70;;
33108;SDS011;19481;51.118;6.940;2022-09-21T03:45:46;2.17;;;1.98;;
33108;SDS011;19481;51.118;6.940;2022-09-21T03:50:49;3.22;;;1.90;;
33108;SDS011;19481;51.118;6.940;2022-09-21T03:55:51;4.32;;;2.13;;
33108;SDS011;19481;51.118;6.940;2022-09-21T04:00:53;7.65;;;3.50;;
33108;SDS011;19481;51.118;6.940;2022-09-21T04:05:56;29.73;;;9.80;;
33108;SDS011;19481;51.118;6.940;2022-09-21T04:10:59;27.35;;;14.07;;
33108;SDS011;19481;51.118;6.940;2022-09-21T04:16:02;23.08;;;11.52;;
33108;SDS011;19481;51.118;6.940;2022-09-21T04:21:05;17.92;;;11.48;;
33108;SDS011;19481;51.118;6.940;2022-09-21T04:26:16;21.70;;;12.50;;
33108;SDS011;19481;51.118;6.940;2022-09-21T04:31:20;13.98;;;8.18;;
33108;SDS011;19481;51.118;6.940;2022-09-21T04:36:23;9.02;;;4.95;;
33108;SDS011;19481;51.118;6.940;2022-09-21T04:41:26;6.88;;;4.60;;
33108;SDS011;19481;51.118;6.940;2022-09-21T04:46:27;22.77;;;11.50;;
33108;SDS011;19481;51.118;6.940;2022-09-21T04:51:30;6.43;;;4.07;;
33108;SDS011;19481;51.118;6.940;2022-09-21T04:56:32;13.18;;;7.45;;
33108;SDS011;19481;51.118;6.940;2022-09-21T05:01:34;11.63;;;4.72;;
33108;SDS011;19481;51.118;6.940;2022-09-21T05:06:37;12.48;;;6.07;;
33108;SDS011;19481;51.118;6.940;2022-09-21T05:11:38;8.07;;;3.70;;
33108;SDS011;19481;51.118;6.940;2022-09-21T05:16:40;8.20;;;3.17;;
33108;SDS011;19481;51.118;6.940;2022-09-21T05:21:43;3.45;;;2.28;;
33108;SDS011;19481;51.118;6.940;2022-09-21T05:26:45;6.07;;;2.40;;
33108;SDS011;19481;51.118;6.940;2022-09-21T05:31:47;2.28;;;2.03;;
33108;SDS011;19481;51.118;6.940;2022-09-21T05:36:55;3.40;;;2.40;;
33108;SDS011;19481;51.118;6.940;2022-09-21T05:42:01;6.43;;;2.53;;
33108;SDS011;19481;51.118;6.940;2022-09-21T05:47:05;3.42;;;2.05;;
33108;SDS011;19481;51.118;6.940;2022-09-21T05:52:22;9.60;;;2.20;;
33108;SDS011;19481;51.118;6.940;2022-09-21T05:57:36;2.78;;;2.20;;
33108;SDS011;19481;51.118;6.940;2022-09-21T06:02:53;3.88;;;2.45;;
33108;SDS011;19481;51.118;6.940;2022-09-21T06:08:06;5.15;;;2.20;;
33108;SDS011;19481;51.118;6.940;2022-09-21T06:13:08;10.20;;;2.50;;
33108;SDS011;19481;51.118;6.940;2022-09-21T06:18:10;8.18;;;2.78;;
33108;SDS011;19481;51.118;6.940;2022-09-21T06:23:13;2.95;;;2.67;;
33108;SDS011;19481;51.118;6.940;2022-09-21T06:28:15;6.05;;;2.53;;
33108;SDS011;19481;51.118;6.940;2022-09-21T06:33:16;3.70;;;2.42;;
33108;SDS011;19481;51.118;6.940;2022-09-21T06:38:21;4.30;;;3.05;;
33108;SDS011;19481;51.118;6.940;2022-09-21T06:43:23;4.13;;;2.70;;
33108;SDS011;19481;51.118;6.940;2022-09-21T06:48:25;4.65;;;2.90;;
33108;SDS011;19481;51.118;6.940;2022-09-21T06:53:29;4.65;;;3.78;;
33108;SDS011;19481;51.118;6.940;2022-09-21T06:58:32;6.72;;;3.92;;
33108;SDS011;19481;51.118;6.940;2022-09-21T07:03:35;6.05;;;3.17;;
33108;SDS011;19481;51.118;6.940;2022-09-21T07:08:39;4.85;;;3.45;;
33108;SDS011;19481;51.118;6.940;2022-09-21T07:13:41;6.68;;;3.67;;
33108;SDS011;19481;51.118;6.940;2022-09-21T07:18:43;5.43;;;3.45;;
33108;SDS011;19481;51.118;6.940;2022-09-21T07:23:46;5.82;;;3.60;;
33108;SDS011;19481;51.118;6.940;2022-09-21T07:28:48;4.78;;;3.75;;
33108;SDS011;19481;51.118;6.940;2022-09-21T07:33:54;6.50;;;3.65;;
33108;SDS011;19481;51.118;6.940;2022-09-21T07:38:58;9.85;;;3.92;;
33108;SDS011;19481;51.118;6.940;2022-09-21T07:44:00;5.25;;;3.60;;
33108;SDS011;19481;51.118;6.940;2022-09-21T07:49:02;13.98;;;4.40;;
33108;SDS011;19481;51.118;6.940;2022-09-21T07:54:08;9.23;;;4.05;;
33108;SDS011;19481;51.118;6.940;2022-09-21T07:59:10;9.68;;;4.90;;
33108;SDS011;19481;51.118;6.940;2022-09-21T08:04:12;8.45;;;4.32;;
33108;SDS011;19481;51.118;6.940;2022-09-21T08:09:15;4.18;;;3.30;;
33108;SDS011;19481;51.118;6.940;2022-09-21T08:14:16;10.15;;;3.55;;
33108;SDS011;19481;51.118;6.940;2022-09-21T08:19:19;4.63;;;3.30;;
33108;SDS011;19481;51.118;6.940;2022-09-21T08:24:24;4.45;;;2.92;;
33108;SDS011;19481;51.118;6.940;2022-09-21T08:29:26;4.43;;;2.90;;
33108;SDS011;19481;51.118;6.940;2022-09-21T08:34:29;10.63;;;3.00;;
33108;SDS011;19481;51.118;6.940;2022-09-21T08:39:32;5.22;;;2.80;;
33108;SDS011;19481;51.118;6.940;2022-09-21T08:44:36;3.42;;;2.88;;
33108;SDS011;19481;51.118;6.940;2022-09-21T08:49:41;4.22;;;2.92;;
33108;SDS011;19481;51.118;6.940;2022-09-21T08:54:50;2.55;;;2.35;;
33108;SDS011;19481;51.118;6.940;2022-09-21T08:59:56;3.22;;;2.70;;
33108;SDS011;19481;51.118;6.940;2022-09-21T09:05:01;6.93;;;2.53;;
33108;SDS011;19481;51.118;6.940;2022-09-21T09:10:12;6.10;;;2.30;;
33108;SDS011;19481;51.118;6.940;2022-09-21T09:15:25;2.83;;;2.20;;
33108;SDS011;19481;51.118;6.940;2022-09-21T09:20:42;3.47;;;2.38;;
33108;SDS011;19481;51.118;6.940;2022-09-21T09:25:49;2.40;;;1.95;;
33108;SDS011;19481;51.118;6.940;2022-09-21T09:30:55;1.57;;;1.47;;
33108;SDS011;19481;51.118;6.940;2022-09-21T09:36:01;3.17;;;1.65;;
33108;SDS011;19481;51.118;6.940;2022-09-21T09:41:16;4.35;;;1.20;;
33108;SDS011;19481;51.118;6.940;2022-09-21T09:46:34;4.75;;;1.48;;
33108;SDS011;19481;51.118;6.940;2022-09-21T09:51:44;2.17;;;1.40;;
33108;SDS011;19481;51.118;6.940;2022-09-21T09:56:48;2.53;;;1.40;;
33108;SDS011;19481;51.118;6.940;2022-09-21T10:01:57;1.77;;;1.20;;
33108;SDS011;19481;51.118;6.940;2022-09-21T10:07:01;7.97;;;1.60;;
33108;SDS011;19481;51.118;6.940;2022-09-21T10:12:15;1.00;;;0.90;;
33108;SDS011;19481;51.118;6.940;2022-09-21T10:17:23;2.20;;;1.00;;
33108;SDS011;19481;51.118;6.940;2022-09-21T10:22:25;2.35;;;0.70;;
33108;SDS011;19481;51.118;6.940;2022-09-21T10:27:32;3.53;;;1.00;;
33108;SDS011;19481;51.118;6.940;2022-09-21T10:32:54;3.17;;;2.00;;
33108;SDS011;19481;51.118;6.940;2022-09-21T10:38:10;5.10;;;0.98;;
33108;SDS011;19481;51.118;6.940;2022-09-21T10:43:24;2.78;;;1.17;;
33108;SDS011;19481;51.118;6.940;2022-09-21T10:48:33;2.55;;;1.00;;
33108;SDS011;19481;51.118;6.940;2022-09-21T10:53:35;2.97;;;0.80;;
33108;SDS011;19481;51.118;6.940;2022-09-21T10:58:38;4.13;;;0.88;;
33108;SDS011;19481;51.118;6.940;2022-09-21T11:03:43;4.97;;;1.55;;
33108;SDS011;19481;51.118;6.940;2022-09-21T11:08:51;1.98;;;1.10;;
33108;SDS011;19481;51.118;6.940;2022-09-21T11:13:58;2.08;;;0.95;;
33108;SDS011;19481;51.118;6.940;2022-09-21T11:19:05;3.03;;;0.80;;
33108;SDS011;19481;51.118;6.940;2022-09-21T11:24:18;2.67;;;0.88;;
33108;SDS011;19481;51.118;6.940;2022-09-21T11:29:28;2.25;;;0.90;;
33108;SDS011;19481;51.118;6.940;2022-09-21T11:34:41;1.15;;;0.60;;
33108;SDS011;19481;51.118;6.940;2022-09-21T11:39:58;0.85;;;0.60;;
33108;SDS011;19481;51.118;6.940;2022-09-21T11:45:19;1.50;;;0.73;;
33108;SDS011;19481;51.118;6.940;2022-09-21T11:50:34;2.00;;;0.60;;
33108;SDS011;19481;51.118;6.940;2022-09-21T11:55:51;0.73;;;0.60;;
33108;SDS011;19481;51.118;6.940;2022-09-21T12:01:16;1.65;;;0.70;;
33108;SDS011;19481;51.118;6.940;2022-09-21T12:06:39;2.20;;;0.70;;
33108;SDS011;19481;51.118;6.940;2022-09-21T12:11:50;1.10;;;0.70;;
33108;SDS011;19481;51.118;6.940;2022-09-21T12:17:01;1.95;;;1.13;;
33108;SDS011;19481;51.118;6.940;2022-09-21T12:22:08;2.72;;;0.80;;
33108;SDS011;19481;51.118;6.940;2022-09-21T12:27:16;3.20;;;0.80;;
33108;SDS011;19481;51.118;6.940;2022-09-21T12:32:27;4.10;;;1.17;;
33108;SDS011;19481;51.118;6.940;2022-09-21T12:37:39;2.50;;;0.98;;
33108;SDS011;19481;51.118;6.940;2022-09-21T12:42:48;3.83;;;1.05;;
33108;SDS011;19481;51.118;6.940;2022-09-21T12:47:57;6.18;;;3.83;;
33108;SDS011;19481;51.118;6.940;2022-09-21T12:53:05;3.38;;;2.25;;
33108;SDS011;19481;51.118;6.940;2022-09-21T12:58:18;3.15;;;1.20;;
33108;SDS011;19481;51.118;6.940;2022-09-21T13:03:32;2.13;;;1.55;;
33108;SDS011;19481;51.118;6.940;2022-09-21T13:08:39;3.67;;;1.92;;
33108;SDS011;19481;51.118;6.940;2022-09-21T13:13:44;2.10;;;1.45;;
33108;SDS011;19481;51.118;6.940;2022-09-21T13:18:54;1.17;;;1.07;;
33108;SDS011;19481;51.118;6.940;2022-09-21T13:23:59;3.03;;;2.10;;
33108;SDS011;19481;51.118;6.940;2022-09-21T13:29:23;3.33;;;0.90;;
33108;SDS011;19481;51.118;6.940;2022-09-21T13:34:31;0.60;;;0.60;;
33108;SDS011;19481;51.118;6.940;2022-09-21T13:39:35;1.92;;;0.80;;
33108;SDS011;19481;51.118;6.940;2022-09-21T13:44:39;1.60;;;0.82;;
33108;SDS011;19481;51.118;6.940;2022-09-21T13:49:44;3.58;;;0.90;;
33108;SDS011;19481;51.118;6.940;2022-09-21T13:54:51;5.13;;;1.27;;
33108;SDS011;19481;51.118;6.940;2022-09-21T14:00:00;1.63;;;0.93;;
33108;SDS011;19481;51.118;6.940;2022-09-21T14:05:22;1.85;;;1.05;;
33108;SDS011;19481;51.118;6.940;2022-09-21T14:10:27;4.13;;;2.17;;
33108;SDS011;19481;51.118;6.940;2022-09-21T14:15:36;3.90;;;1.30;;
33108;SDS011;19481;51.118;6.940;2022-09-21T14:20:41;4.65;;;3.08;;
33108;SDS011;19481;51.118;6.940;2022-09-21T14:26:19;6.40;;;1.98;;
33108;SDS011;19481;51.118;6.940;2022-09-21T14:31:32;4.45;;;1.35;;
33108;SDS011;19481;51.118;6.940;2022-09-21T14:36:38;6.30;;;1.55;;
33108;SDS011;19481;51.118;6.940;2022-09-21T14:46:58;3.05;;;2.25;;
33108;SDS011;19481;51.118;6.940;2022-09-21T14:57:36;1.13;;;0.80;;
33108;SDS011;19481;51.118;6.940;2022-09-21T15:03:04;1.17;;;0.60;;
33108;SDS011;19481;51.118;6.940;2022-09-21T15:08:34;0.95;;;0.75;;
33108;SDS011;19481;51.118;6.940;2022-09-21T15:14:15;2.35;;;0.80;;
33108;SDS011;19481;51.118;6.940;2022-09-21T15:19:23;2.05;;;0.70;;
33108;SDS011;19481;51.118;6.940;2022-09-21T15:24:28;2.00;;;0.70;;
33108;SDS011;19481;51.118;6.940;2022-09-21T15:29:31;3.03;;;0.70;;
33108;SDS011;19481;51.118;6.940;2022-09-21T15:34:33;1.75;;;0.90;;
33108;SDS011;19481;51.118;6.940;2022-09-21T15:39:36;3.83;;;0.80;;
33108;SDS011;19481;51.118;6.940;2022-09-21T15:44:40;0.70;;;0.70;;
33108;SDS011;19481;51.118;6.940;2022-09-21T15:49:45;1.65;;;0.90;;
33108;SDS011;19481;51.118;6.940;2022-09-21T15:54:49;0.77;;;0.68;;
33108;SDS011;19481;51.118;6.940;2022-09-21T15:59:55;0.82;;;0.68;;
33108;SDS011;19481;51.118;6.940;2022-09-21T16:04:57;2.17;;;1.00;;
33108;SDS011;19481;51.118;6.940;2022-09-21T16:10:00;0.70;;;0.70;;
33108;SDS011;19481;51.118;6.940;2022-09-21T16:15:05;0.70;;;0.63;;
33108;SDS011;19481;51.118;6.940;2022-09-21T16:20:18;1.65;;;0.70;;
33108;SDS011;19481;51.118;6.940;2022-09-21T16:25:25;1.52;;;0.75;;
33108;SDS011;19481;51.118;6.940;2022-09-21T16:30:40;2.53;;;0.70;;
33108;SDS011;19481;51.118;6.940;2022-09-21T16:35:45;1.38;;;1.05;;
33108;SDS011;19481;51.118;6.940;2022-09-21T16:40:48;0.82;;;0.50;;
33108;SDS011;19481;51.118;6.940;2022-09-21T16:45:50;1.27;;;0.80;;
33108;SDS011;19481;51.118;6.940;2022-09-21T16:50:52;2.85;;;0.60;;
33108;SDS011;19481;51.118;6.940;2022-09-21T16:55:55;1.45;;;0.50;;
33108;SDS011;19481;51.118;6.940;2022-09-21T17:00:57;1.80;;;1.00;;
33108;SDS011;19481;51.118;6.940;2022-09-21T17:05:59;3.15;;;1.02;;
33108;SDS011;19481;51.118;6.940;2022-09-21T17:11:03;2.50;;;0.82;;
33108;SDS011;19481;51.118;6.940;2022-09-21T17:16:05;1.55;;;0.63;;
33108;SDS011;19481;51.118;6.940;2022-09-21T17:21:08;2.30;;;1.52;;
33108;SDS011;19481;51.118;6.940;2022-09-21T17:26:12;4.93;;;1.77;;
33108;SDS011;19481;51.118;6.940;2022-09-21T17:31:16;2.63;;;1.52;;
33108;SDS011;19481;51.118;6.940;2022-09-21T17:36:20;2.30;;;1.20;;
33108;SDS011;19481;51.118;6.940;2022-09-21T17:41:24;3.17;;;1.23;;
33108;SDS011;19481;51.118;6.940;2022-09-21T17:46:33;11.15;;;1.23;;
33108;SDS011;19481;51.118;6.940;2022-09-21T17:51:40;2.78;;;1.25;;
33108;SDS011;19481;51.118;6.940;2022-09-21T17:57:03;1.35;;;0.85;;
33108;SDS011;19481;51.118;6.940;2022-09-21T18:02:12;1.65;;;1.35;;
33108;SDS011;19481;51.118;6.940;2022-09-21T18:07:21;4.30;;;1.13;;
33108;SDS011;19481;51.118;6.940;2022-09-21T18:12:35;3.22;;;1.45;;
33108;SDS011;19481;51.118;6.940;2022-09-21T18:17:48;4.05;;;2.10;;
33108;SDS011;19481;51.118;6.940;2022-09-21T18:23:00;3.55;;;1.83;;
33108;SDS011;19481;51.118;6.940;2022-09-21T18:28:11;19.15;;;8.93;;
33108;SDS011;19481;51.118;6.940;2022-09-21T18:33:19;15.03;;;7.47;;
33108;SDS011;19481;51.118;6.940;2022-09-21T18:38:26;7.75;;;4.10;;
33108;SDS011;19481;51.118;6.940;2022-09-21T18:43:36;6.97;;;3.60;;
33108;SDS011;19481;51.118;6.940;2022-09-21T18:48:50;5.55;;;2.92;;
33108;SDS011;19481;51.118;6.940;2022-09-21T18:53:58;10.55;;;4.05;;
33108;SDS011;19481;51.118;6.940;2022-09-21T18:59:02;6.57;;;3.80;;
33108;SDS011;19481;51.118;6.940;2022-09-21T19:04:06;5.50;;;3.67;;
33108;SDS011;19481;51.118;6.940;2022-09-21T19:09:12;17.50;;;7.97;;
33108;SDS011;19481;51.118;6.940;2022-09-21T19:14:24;22.73;;;9.50;;
33108;SDS011;19481;51.118;6.940;2022-09-21T19:19:35;18.25;;;8.27;;
33108;SDS011;19481;51.118;6.940;2022-09-21T19:24:44;16.38;;;7.05;;
33108;SDS011;19481;51.118;6.940;2022-09-21T19:30:01;5.93;;;4.15;;
33108;SDS011;19481;51.118;6.940;2022-09-21T19:35:19;20.33;;;9.82;;
33108;SDS011;19481;51.118;6.940;2022-09-21T19:40:23;9.65;;;5.85;;
33108;SDS011;19481;51.118;6.940;2022-09-21T19:45:29;15.63;;;8.77;;
33108;SDS011;19481;51.118;6.940;2022-09-21T19:50:40;10.52;;;5.40;;
33108;SDS011;19481;51.118;6.940;2022-09-21T19:55:46;12.70;;;6.25;;
33108;SDS011;19481;51.118;6.940;2022-09-21T20:01:07;5.00;;;3.28;;
33108;SDS011;19481;51.118;6.940;2022-09-21T20:06:12;7.57;;;4.20;;
33108;SDS011;19481;51.118;6.940;2022-09-21T20:11:19;6.55;;;4.95;;
33108;SDS011;19481;51.118;6.940;2022-09-21T20:16:36;5.80;;;3.67;;
33108;SDS011;19481;51.118;6.940;2022-09-21T20:21:43;7.63;;;3.90;;
33108;SDS011;19481;51.118;6.940;2022-09-21T20:26:46;5.38;;;2.85;;
33108;SDS011;19481;51.118;6.940;2022-09-21T20:31:52;5.70;;;3.65;;
33108;SDS011;19481;51.118;6.940;2022-09-21T20:36:54;6.32;;;2.85;;
33108;SDS011;19481;51.118;6.940;2022-09-21T20:41:56;5.95;;;3.22;;
33108;SDS011;19481;51.118;6.940;2022-09-21T20:47:00;4.47;;;3.00;;
33108;SDS011;19481;51.118;6.940;2022-09-21T20:52:01;7.05;;;3.55;;
33108;SDS011;19481;51.118;6.940;2022-09-21T20:57:03;6.65;;;3.50;;
33108;SDS011;19481;51.118;6.940;2022-09-21T21:02:09;9.82;;;3.30;;
33108;SDS011;19481;51.118;6.940;2022-09-21T21:07:11;6.10;;;3.10;;
33108;SDS011;19481;51.118;6.940;2022-09-21T21:12:13;3.85;;;3.30;;
33108;SDS011;19481;51.118;6.940;2022-09-21T21:17:18;5.47;;;3.00;;
33108;SDS011;19481;51.118;6.940;2022-09-21T21:22:19;6.45;;;3.45;;
33108;SDS011;19481;51.118;6.940;2022-09-21T21:27:23;9.15;;;3.70;;
33108;SDS011;19481;51.118;6.940;2022-09-21T21:32:27;4.40;;;3.28;;
33108;SDS011;19481;51.118;6.940;2022-09-21T21:37:31;5.65;;;3.78;;
33108;SDS011;19481;51.118;6.940;2022-09-21T21:42:32;4.45;;;2.88;;
33108;SDS011;19481;51.118;6.940;2022-09-21T21:47:35;4.22;;;2.80;;
33108;SDS011;19481;51.118;6.940;2022-09-21T21:52:37;8.60;;;3.15;;
33108;SDS011;19481;51.118;6.940;2022-09-21T21:57:39;4.88;;;3.17;;
33108;SDS011;19481;51.118;6.940;2022-09-21T22:02:42;6.20;;;2.97;;
33108;SDS011;19481;51.118;6.940;2022-09-21T22:07:44;6.30;;;2.70;;
33108;SDS011;19481;51.118;6.940;2022-09-21T22:12:46;4.28;;;2.90;;
33108;SDS011;19481;51.118;6.940;2022-09-21T22:17:49;4.43;;;2.80;;
33108;SDS011;19481;51.118;6.940;2022-09-21T22:22:50;3.22;;;2.60;;
33108;SDS011;19481;51.118;6.940;2022-09-21T22:27:52;6.57;;;2.97;;
33108;SDS011;19481;51.118;6.940;2022-09-21T22:32:55;8.00;;;4.32;;
33108;SDS011;19481;51.118;6.940;2022-09-21T22:37:57;9.13;;;4.25;;
33108;SDS011;19481;51.118;6.940;2022-09-21T22:42:58;11.25;;;7.25;;
33108;SDS011;19481;51.118;6.940;2022-09-21T22:48:01;15.13;;;7.05;;
33108;SDS011;19481;51.118;6.940;2022-09-21T22:53:03;11.75;;;7.28;;
33108;SDS011;19481;51.118;6.940;2022-09-21T22:58:05;7.95;;;4.90;;
33108;SDS011;19481;51.118;6.940;2022-09-21T23:03:07;10.13;;;5.80;;
33108;SDS011;19481;51.118;6.940;2022-09-21T23:08:11;16.15;;;6.78;;
33108;SDS011;19481;51.118;6.940;2022-09-21T23:13:12;13.38;;;6.15;;
33108;SDS011;19481;51.118;6.940;2022-09-21T23:18:16;9.75;;;4.80;;
33108;SDS011;19481;51.118;6.940;2022-09-21T23:23:17;7.30;;;4.22;;
33108;SDS011;19481;51.118;6.940;2022-09-21T23:28:19;5.32;;;4.20;;
33108;SDS011;19481;51.118;6.940;2022-09-21T23:33:22;5.88;;;3.15;;
33108;SDS011;19481;51.118;6.940;2022-09-21T23:38:24;6.72;;;3.90;;
33108;SDS011;19481;51.118;6.940;2022-09-21T23:43:28;3.33;;;2.78;;
33108;SDS011;19481;51.118;6.940;2022-09-21T23:48:31;4.97;;;2.55;;
33108;SDS011;19481;51.118;6.940;2022-09-21T23:53:34;5.55;;;2.63;;
33108;SDS011;19481;51.118;6.940;2022-09-21T23:58:36;5.55;;;3.10;;
